»·PEaware :: N416JK KEUG-KACV

N416JK :: KEUG-KACV

FLIGHT INFORMATION

Flight Status: Arrived
Operator: Privately registered:
United States
More flights under this callsign
Pilot: John K. (4202)
Aircraft: Unknown
(EPIC)
More flights by this aircraft type
Origin: KEUG Mahlon Sweet
United States
Destination: KACV Arcata
United States
More flights between these airports :: More routes between these airports
Route: +EUG1 VAUGN V121 OTH V27 CULDU
File this flight plan on PilotEdge
Remarks:
Altitude:
(Current/Filed)
11,000ft
Speed:
(Current/Filed)
280kts
Departed: 27-Jun-19 09:19 AM
Arrived: 27-Jun-19 10:10 AM
Distance/Time
Traveled:
193nm/0:50
Distance/Time
To Go:
Arrived

Flight Plot

Page will automatically refresh every two minutes.

Flight plan parsing failed; only flown route is shown


Map Options




Map Legend


Flown Route
Filed Route
Departure Airport
Arrival Airport
Navaid (VOR, NDB)
Fix

Horizontal Profiles

Position Reports

Time Latitude Longitude Heading Altitude Ground
Speed
27-Jun-19 09:01 44.122814 -123.211825 118 378ft 0kts
27-Jun-19 09:02 44.122814 -123.211825 118 378ft 0kts
27-Jun-19 09:03 44.122814 -123.211825 118 378ft 0kts
27-Jun-19 09:04 44.122814 -123.211825 118 378ft 0kts
27-Jun-19 09:05 44.122814 -123.211825 118 378ft 0kts
27-Jun-19 09:06 44.122814 -123.211825 118 378ft 0kts
27-Jun-19 09:07 44.124587 -123.210499 299 378ft 0kts
27-Jun-19 09:08 44.124587 -123.210499 299 378ft 0kts
27-Jun-19 09:09 44.124587 -123.210499 299 378ft 0kts
27-Jun-19 09:10 44.124587 -123.210499 299 378ft 0kts
27-Jun-19 09:11 44.124587 -123.210499 299 378ft 0kts
27-Jun-19 09:12 44.124587 -123.210499 299 378ft 0kts
27-Jun-19 09:13 44.124587 -123.210499 299 378ft 0kts
27-Jun-19 09:14 44.124587 -123.210499 299 378ft 0kts
27-Jun-19 09:15 44.124587 -123.210499 299 378ft 0kts
27-Jun-19 09:16 44.125283 -123.210402 25 378ft 16kts
27-Jun-19 09:17 44.126415 -123.213673 272 378ft 37kts
27-Jun-19 09:18 44.133495 -123.217234 358 378ft 44kts
27-Jun-19 09:19 44.135206 -123.217182 297 378ft 0kts
27-Jun-19 09:20 44.135295 -123.217735 268 378ft 6kts
27-Jun-19 09:21 44.107699 -123.217267 178 791ft 224kts
27-Jun-19 09:22 44.041311 -123.211639 178 3172ft 242kts
27-Jun-19 09:23 44.004281 -123.271928 250 5945ft 226kts
27-Jun-19 09:24 43.981437 -123.353507 249 8016ft 235kts
27-Jun-19 09:25 43.958022 -123.436315 249 10087ft 234kts
27-Jun-19 09:26 43.911294 -123.507153 226 11002ft 280kts
27-Jun-19 09:27 43.853667 -123.584992 225 11000ft 300kts
27-Jun-19 09:28 43.793679 -123.665642 225 11009ft 303kts
27-Jun-19 09:29 43.733634 -123.746119 225 11008ft 304kts
27-Jun-19 09:30 43.673675 -123.826243 225 11008ft 304kts
27-Jun-19 09:31 43.613644 -123.906231 225 10920ft 306kts
27-Jun-19 09:32 43.552479 -123.987139 225 10907ft 305kts
27-Jun-19 09:33 43.491902 -124.067290 225 10907ft 304kts
27-Jun-19 09:34 43.431900 -124.147126 225 10908ft 304kts
27-Jun-19 09:35 43.350792 -124.171079 184 10909ft 314kts
27-Jun-19 09:36 43.263368 -124.175566 183 10908ft 315kts
27-Jun-19 09:37 43.176928 -124.179520 183 10908ft 315kts
27-Jun-19 09:38 43.090368 -124.183411 183 10909ft 315kts
27-Jun-19 09:39 43.003707 -124.187288 183 10909ft 317kts
27-Jun-19 09:40 42.915995 -124.191204 183 10938ft 319kts
27-Jun-19 09:41 42.827896 -124.195123 183 11049ft 317kts
27-Jun-19 09:42 42.740542 -124.198999 183 11086ft 318kts
27-Jun-19 09:43 42.653179 -124.202864 183 11117ft 319kts
27-Jun-19 09:44 42.565512 -124.206732 183 11136ft 319kts
27-Jun-19 09:45 42.476913 -124.210630 183 11149ft 319kts
27-Jun-19 09:46 42.389462 -124.214465 183 11154ft 319kts
27-Jun-19 09:47 42.301739 -124.218316 183 11156ft 319kts
27-Jun-19 09:48 42.214763 -124.222125 183 11164ft 319kts
27-Jun-19 09:49 42.126439 -124.225983 183 11171ft 319kts
27-Jun-19 09:50 42.038486 -124.229815 183 11175ft 319kts
27-Jun-19 09:51 41.950999 -124.233617 183 11105ft 318kts
27-Jun-19 09:52 41.865682 -124.237301 183 11082ft 311kts
27-Jun-19 09:53 41.781030 -124.240953 183 11083ft 312kts
27-Jun-19 09:54 41.693987 -124.240536 181 10904ft 316kts
27-Jun-19 09:55 41.608932 -124.240013 181 9814ft 291kts
27-Jun-19 09:56 41.531997 -124.239568 181 8727ft 275kts
27-Jun-19 09:57 41.457354 -124.239127 181 7644ft 270kts
27-Jun-19 09:58 41.382900 -124.238691 181 6547ft 267kts
27-Jun-19 09:59 41.311734 -124.238195 181 6055ft 246kts
27-Jun-19 10:00 41.246828 -124.237875 182 6054ft 230kts
27-Jun-19 10:01 41.184854 -124.232779 171 5890ft 229kts
27-Jun-19 10:02 41.117111 -124.227434 184 3754ft 257kts
27-Jun-19 10:03 41.054493 -124.209711 153 2964ft 241kts
27-Jun-19 10:04 40.995253 -124.169587 156 1947ft 217kts
27-Jun-19 10:05 40.949617 -124.141446 158 1693ft 133kts
27-Jun-19 10:06 40.929548 -124.116031 69 824ft 115kts
27-Jun-19 10:07 40.952341 -124.096446 356 936ft 112kts
27-Jun-19 10:08 40.979169 -124.108986 336 225ft 41kts
27-Jun-19 10:09 40.979034 -124.110127 152 225ft 7kts
27-Jun-19 10:10 40.975302 -124.108511 181 225ft 30kts

Navigation Log

Ident Type
Flight plan parsing failed, navigation log unavailable